Time;durP1;ratioP1;P1;durP2;ratioP2;P2;SDS_P1;SDS_P2;PMS_P1;PMS_P2;Temp;Humidity;BMP_temperature;BMP_pressure;BME280_temperature;BME280_humidity;BME280_pressure;Samples;Min_cycle;Max_cycle;Signal;HPM_P1;HPM_P2
2022/12/28 00:02:01;;;;;;;2.83;0.57;;;;;;;;;;5092961;28;20412;-76
2022/12/28 00:04:27;;;;;;;2.88;0.45;;;;;;;;;;5094187;28;20494;-78
2022/12/28 00:06:52;;;;;;;3.63;1.05;;;;;;;;;;5095809;28;20020;-77
2022/12/28 00:09:18;;;;;;;1.00;0.30;;;;;;;;;;5099444;28;20089;-75
2022/12/28 00:11:43;;;;;;;2.05;0.38;;;;;;;;;;5097497;28;20093;-77
2022/12/28 00:14:09;;;;;;;2.33;0.13;;;;;;;;;;5098844;28;20016;-76
2022/12/28 00:16:36;;;;;;;1.75;0.57;;;;;;;;;;5101068;28;20023;-77
2022/12/28 00:19:03;;;;;;;3.65;0.32;;;;;;;;;;5100564;28;20061;-76
2022/12/28 00:21:30;;;;;;;3.22;0.85;;;;;;;;;;5099457;28;20017;-77
2022/12/28 00:23:56;;;;;;;0.57;0.20;;;;;;;;;;5101410;28;20057;-79
2022/12/28 00:26:22;;;;;;;0.85;0.13;;;;;;;;;;5100243;28;20026;-77
2022/12/28 00:28:48;;;;;;;0.93;0.25;;;;;;;;;;5099298;28;20046;-77
2022/12/28 00:31:14;;;;;;;4.97;0.45;;;;;;;;;;5100366;28;20042;-77
2022/12/28 00:33:39;;;;;;;4.60;0.40;;;;;;;;;;5100606;28;20472;-77
2022/12/28 00:36:05;;;;;;;1.25;0.32;;;;;;;;;;5100256;28;20045;-76
2022/12/28 00:38:31;;;;;;;2.25;0.15;;;;;;;;;;5100600;28;20016;-76
2022/12/28 00:40:57;;;;;;;1.27;0.30;;;;;;;;;;5100684;28;20024;-77
2022/12/28 00:43:22;;;;;;;1.40;0.70;;;;;;;;;;5098769;28;20024;-76
2022/12/28 00:45:48;;;;;;;3.75;0.10;;;;;;;;;;5098523;28;20027;-76
2022/12/28 00:48:14;;;;;;;2.25;0.30;;;;;;;;;;5100147;28;20016;-76
2022/12/28 00:50:39;;;;;;;1.85;0.38;;;;;;;;;;5098564;28;20056;-76
2022/12/28 00:53:05;;;;;;;7.43;0.75;;;;;;;;;;5099316;28;20020;-76
2022/12/28 00:55:31;;;;;;;1.25;0.38;;;;;;;;;;5099388;28;20140;-76
2022/12/28 00:58:00;;;;;;;7.22;0.43;;;;;;;;;;5100559;28;20022;-76
2022/12/28 01:00:26;;;;;;;0.82;0.20;;;;;;;;;;5098723;28;20128;-75
2022/12/28 01:02:51;;;;;;;2.65;0.40;;;;;;;;;;5098712;28;20089;-76
2022/12/28 01:05:17;;;;;;;3.83;0.25;;;;;;;;;;5099583;28;20016;-77
2022/12/28 01:07:42;;;;;;;3.00;0.50;;;;;;;;;;5099321;28;20480;-76
2022/12/28 01:10:08;;;;;;;2.33;0.30;;;;;;;;;;5099711;28;20479;-78
2022/12/28 01:12:34;;;;;;;7.78;0.50;;;;;;;;;;5099784;28;20016;-76
2022/12/28 01:14:59;;;;;;;4.68;0.40;;;;;;;;;;5098680;28;20469;-76
2022/12/28 01:17:26;;;;;;;3.33;0.30;;;;;;;;;;5100352;28;20030;-76
2022/12/28 01:19:51;;;;;;;4.93;0.38;;;;;;;;;;5100512;28;20027;-76
2022/12/28 01:22:16;;;;;;;6.13;0.40;;;;;;;;;;5099295;28;20027;-76
2022/12/28 01:24:43;;;;;;;1.42;0.40;;;;;;;;;;5099000;28;20026;-77
2022/12/28 01:27:08;;;;;;;1.48;0.30;;;;;;;;;;5096839;28;20012;-76
2022/12/28 01:29:34;;;;;;;6.40;0.52;;;;;;;;;;5101041;28;20473;-75
2022/12/28 01:31:59;;;;;;;0.93;0.43;;;;;;;;;;5099290;28;20051;-76
2022/12/28 01:34:24;;;;;;;1.50;0.30;;;;;;;;;;5101055;28;20020;-78
2022/12/28 01:36:50;;;;;;;2.17;0.30;;;;;;;;;;5100439;28;20016;-77
2022/12/28 01:39:15;;;;;;;2.33;0.22;;;;;;;;;;5101339;28;20157;-77
2022/12/28 01:41:41;;;;;;;2.42;0.25;;;;;;;;;;5101591;28;20376;-77
2022/12/28 01:44:06;;;;;;;0.60;0.17;;;;;;;;;;5102416;28;20401;-76
2022/12/28 01:46:36;;;;;;;4.88;0.40;;;;;;;;;;5100741;28;20089;-78
2022/12/28 01:49:11;;;;;;;3.58;0.32;;;;;;;;;;5099887;28;20107;-78
2022/12/28 01:51:36;;;;;;;;;;;;;;;;;;5101077;28;20067;-79
2022/12/28 01:54:03;;;;;;;11.10;0.80;;;;;;;;;;5098844;28;19915;-78
2022/12/28 01:56:28;;;;;;;3.72;0.47;;;;;;;;;;5100206;28;20017;-77
2022/12/28 01:58:55;;;;;;;3.38;0.65;;;;;;;;;;5099254;28;20020;-78
2022/12/28 02:01:20;;;;;;;2.35;0.20;;;;;;;;;;5097028;28;20071;-78
2022/12/28 02:03:46;;;;;;;4.78;0.57;;;;;;;;;;5097481;28;20535;-77
2022/12/28 02:06:12;;;;;;;2.15;0.30;;;;;;;;;;5097736;28;20023;-76
2022/12/28 02:08:37;;;;;;;2.72;1.15;;;;;;;;;;5098726;28;20469;-78
2022/12/28 02:11:03;;;;;;;2.45;0.80;;;;;;;;;;5096562;28;20396;-78
2022/12/28 02:13:30;;;;;;;4.38;0.40;;;;;;;;;;5097019;28;20468;-78
2022/12/28 02:15:55;;;;;;;2.53;0.45;;;;;;;;;;5097899;28;20491;-75
2022/12/28 02:18:21;;;;;;;3.65;0.20;;;;;;;;;;5097021;28;20016;-78
2022/12/28 02:20:56;;;;;;;2.13;0.93;;;;;;;;;;5096417;28;20020;-77
2022/12/28 02:23:39;;;;;;;6.60;1.67;;;;;;;;;;5095853;28;20025;-77
2022/12/28 02:26:23;;;;;;;3.10;0.40;;;;;;;;;;5095718;28;20028;-77
2022/12/28 02:29:07;;;;;;;1.50;0.22;;;;;;;;;;5099504;28;20012;-77
2022/12/28 02:31:50;;;;;;;4.68;1.10;;;;;;;;;;5101440;28;20456;-77
2022/12/28 02:34:36;;;;;;;5.93;0.65;;;;;;;;;;5099729;28;20042;-77
2022/12/28 02:37:15;;;;;;;2.13;0.40;;;;;;;;;;5097058;28;20016;-77
2022/12/28 02:39:43;;;;;;;4.13;1.08;;;;;;;;;;5096377;28;20111;-79
2022/12/28 02:42:09;;;;;;;1.67;0.20;;;;;;;;;;5097207;28;20063;-78
2022/12/28 02:50:07;;;;;;;2.25;0.43;;;;;;;;;;5102070;28;20039;-79
2022/12/28 02:52:51;;;;;;;2.58;0.40;;;;;;;;;;5098666;28;20023;-77
2022/12/28 02:58:06;;;;;;;1.77;0.35;;;;;;;;;;5095792;28;20041;-77
2022/12/28 03:00:50;;;;;;;5.70;1.65;;;;;;;;;;5094874;28;20020;-77
2022/12/28 03:03:21;;;;;;;5.40;0.50;;;;;;;;;;5094887;28;20093;-76
2022/12/28 03:08:41;;;;;;;1.23;0.20;;;;;;;;;;5097993;28;20144;-77
2022/12/28 03:11:09;;;;;;;3.80;1.08;;;;;;;;;;5102403;28;20093;-78
2022/12/28 03:13:44;;;;;;;4.82;0.35;;;;;;;;;;5102662;28;20321;-80
2022/12/28 03:16:21;;;;;;;7.57;1.85;;;;;;;;;;5096982;28;20043;-77
2022/12/28 03:32:45;;;;;;;2.45;0.45;;;;;;;;;;5100127;28;20031;-77
2022/12/28 03:35:10;;;;;;;2.22;0.10;;;;;;;;;;5095507;28;20051;-75
2022/12/28 03:37:56;;;;;;;3.25;0.57;;;;;;;;;;5096301;28;20027;-77
2022/12/28 03:40:40;;;;;;;2.57;0.37;;;;;;;;;;5094595;28;20537;-75
2022/12/28 03:43:44;;;;;;;4.25;0.30;;;;;;;;;;5093359;28;20012;-76
2022/12/28 03:46:28;;;;;;;3.70;0.30;;;;;;;;;;5068786;28;20503;-78
2022/12/28 03:48:54;;;;;;;3.78;0.50;;;;;;;;;;5093873;28;20577;-75
2022/12/28 03:51:21;;;;;;;0.75;0.20;;;;;;;;;;5093112;28;20107;-78
2022/12/28 03:53:47;;;;;;;2.45;0.35;;;;;;;;;;5094413;28;20095;-78
2022/12/28 03:56:16;;;;;;;4.05;0.22;;;;;;;;;;5093679;28;20108;-78
2022/12/28 03:58:42;;;;;;;5.07;0.60;;;;;;;;;;5094091;28;20032;-77
2022/12/28 04:01:07;;;;;;;1.27;0.25;;;;;;;;;;5093402;28;20489;-79
2022/12/28 04:03:33;;;;;;;1.08;0.20;;;;;;;;;;5096644;28;20044;-77
2022/12/28 04:05:59;;;;;;;1.45;0.28;;;;;;;;;;5097228;28;20017;-77
2022/12/28 04:08:24;;;;;;;1.53;0.20;;;;;;;;;;5096921;28;20059;-77
2022/12/28 04:10:50;;;;;;;1.45;0.70;;;;;;;;;;5095726;28;20066;-78
2022/12/28 04:13:15;;;;;;;1.85;0.47;;;;;;;;;;5095820;28;20012;-76
2022/12/28 04:15:41;;;;;;;2.58;0.20;;;;;;;;;;5097200;28;20091;-79
2022/12/28 04:18:06;;;;;;;1.85;0.50;;;;;;;;;;5099922;28;20019;-78
2022/12/28 04:20:32;;;;;;;1.02;0.20;;;;;;;;;;5098609;28;20418;-77
2022/12/28 04:22:57;;;;;;;2.75;0.45;;;;;;;;;;5097944;28;20024;-79
2022/12/28 04:25:23;;;;;;;1.50;0.40;;;;;;;;;;5095461;28;20020;-77
2022/12/28 04:27:48;;;;;;;2.85;0.30;;;;;;;;;;5094215;28;20020;-77
2022/12/28 04:30:14;;;;;;;2.97;0.30;;;;;;;;;;5093068;28;20036;-78
2022/12/28 04:32:39;;;;;;;3.63;0.25;;;;;;;;;;5093285;28;20020;-79
2022/12/28 04:35:04;;;;;;;3.47;0.40;;;;;;;;;;5094644;28;20392;-76
2022/12/28 04:37:30;;;;;;;5.72;0.40;;;;;;;;;;5094059;28;20024;-77
2022/12/28 04:39:55;;;;;;;8.07;0.65;;;;;;;;;;5094024;28;20016;-79
2022/12/28 04:42:21;;;;;;;1.73;0.65;;;;;;;;;;5092746;28;20020;-76
2022/12/28 04:44:46;;;;;;;1.40;0.65;;;;;;;;;;5093367;28;20020;-75
2022/12/28 04:47:12;;;;;;;0.77;0.25;;;;;;;;;;5094051;28;20023;-77
2022/12/28 04:49:37;;;;;;;3.63;0.50;;;;;;;;;;5094284;28;20039;-77
2022/12/28 04:52:03;;;;;;;2.28;0.40;;;;;;;;;;5094769;28;20020;-78
2022/12/28 04:54:28;;;;;;;2.45;1.50;;;;;;;;;;5094715;28;20452;-78
2022/12/28 04:56:54;;;;;;;1.75;0.20;;;;;;;;;;5093345;28;20016;-80
2022/12/28 04:59:19;;;;;;;5.43;0.40;;;;;;;;;;5093530;28;20027;-78
2022/12/28 05:01:45;;;;;;;2.45;0.30;;;;;;;;;;5094668;28;20101;-76
2022/12/28 05:04:11;;;;;;;7.28;1.08;;;;;;;;;;5096206;28;20019;-77
2022/12/28 05:06:38;;;;;;;1.52;0.30;;;;;;;;;;5096678;28;20031;-76
2022/12/28 05:09:03;;;;;;;6.57;0.40;;;;;;;;;;5097123;28;20038;-77
2022/12/28 05:11:29;;;;;;;1.95;0.30;;;;;;;;;;5096489;28;20020;-77
2022/12/28 05:13:55;;;;;;;3.38;0.35;;;;;;;;;;5096454;28;20016;-75
2022/12/28 05:16:22;;;;;;;1.65;0.30;;;;;;;;;;5098460;28;20463;-77
2022/12/28 05:18:47;;;;;;;4.40;0.65;;;;;;;;;;5097536;28;20028;-77
2022/12/28 05:21:18;;;;;;;3.53;0.60;;;;;;;;;;5098818;28;20065;-75
2022/12/28 05:23:43;;;;;;;9.20;0.50;;;;;;;;;;5097626;28;20032;-76
2022/12/28 05:26:13;;;;;;;4.18;0.50;;;;;;;;;;5097691;28;20500;-75
2022/12/28 05:28:39;;;;;;;3.08;0.47;;;;;;;;;;5098733;28;20106;-76
2022/12/28 05:31:05;;;;;;;2.17;0.30;;;;;;;;;;5099662;28;20059;-78
2022/12/28 05:33:32;;;;;;;1.58;0.38;;;;;;;;;;5098749;28;20016;-77
2022/12/28 05:36:11;;;;;;;1.67;0.40;;;;;;;;;;5095484;28;20073;-76
2022/12/28 05:38:37;;;;;;;1.88;0.30;;;;;;;;;;5096553;28;20032;-77
2022/12/28 05:41:03;;;;;;;3.92;0.40;;;;;;;;;;5096114;28;20016;-76
2022/12/28 05:43:29;;;;;;;9.40;1.02;;;;;;;;;;5095355;28;20012;-78
2022/12/28 05:45:59;;;;;;;2.90;0.50;;;;;;;;;;5096458;28;20061;-77
2022/12/28 05:48:24;;;;;;;3.40;0.73;;;;;;;;;;5100281;28;20027;-75
2022/12/28 05:50:50;;;;;;;3.83;0.50;;;;;;;;;;5100854;28;20028;-77
2022/12/28 05:53:15;;;;;;;2.70;0.53;;;;;;;;;;5101581;28;20027;-77
2022/12/28 05:55:40;;;;;;;5.00;0.63;;;;;;;;;;5097569;28;20079;-79
2022/12/28 05:58:07;;;;;;;8.70;0.90;;;;;;;;;;5096959;28;20040;-78
2022/12/28 06:00:33;;;;;;;4.97;0.60;;;;;;;;;;5098454;28;20077;-78
2022/12/28 06:02:59;;;;;;;2.55;0.65;;;;;;;;;;5097955;28;20160;-77
2022/12/28 06:05:26;;;;;;;3.00;0.47;;;;;;;;;;5097882;28;20135;-77
2022/12/28 06:07:52;;;;;;;2.05;0.30;;;;;;;;;;5096867;28;20056;-76
2022/12/28 06:10:17;;;;;;;5.47;0.45;;;;;;;;;;5098078;28;20468;-77
2022/12/28 06:12:44;;;;;;;2.80;0.40;;;;;;;;;;5096797;28;20020;-77
2022/12/28 06:15:11;;;;;;;1.27;0.30;;;;;;;;;;5097955;28;20023;-77
2022/12/28 06:17:37;;;;;;;4.43;0.60;;;;;;;;;;5098202;28;20016;-77
2022/12/28 06:20:02;;;;;;;5.70;0.70;;;;;;;;;;5096783;28;20065;-76
2022/12/28 06:22:28;;;;;;;3.95;0.82;;;;;;;;;;5094693;28;20013;-76
2022/12/28 06:24:54;;;;;;;5.27;0.43;;;;;;;;;;5097098;28;20487;-77
2022/12/28 06:27:20;;;;;;;3.63;0.38;;;;;;;;;;5102792;28;20016;-77
2022/12/28 06:29:45;;;;;;;6.17;1.20;;;;;;;;;;5102969;28;20500;-78
2022/12/28 06:32:11;;;;;;;3.93;0.73;;;;;;;;;;5100296;28;20022;-78
2022/12/28 06:34:36;;;;;;;6.10;0.50;;;;;;;;;;5098354;28;20019;-76
2022/12/28 06:37:03;;;;;;;3.05;0.50;;;;;;;;;;5094835;28;20012;-76
2022/12/28 06:39:28;;;;;;;5.03;0.93;;;;;;;;;;5096591;28;20016;-77
2022/12/28 06:41:53;;;;;;;5.77;0.73;;;;;;;;;;5101881;28;20099;-78
2022/12/28 06:44:19;;;;;;;2.83;0.60;;;;;;;;;;5102298;28;20012;-77
2022/12/28 06:46:44;;;;;;;1.85;0.45;;;;;;;;;;5095881;28;20391;-76
2022/12/28 06:49:10;;;;;;;5.03;0.80;;;;;;;;;;5094789;28;20023;-77
2022/12/28 06:51:39;;;;;;;1.73;0.73;;;;;;;;;;5096363;28;20024;-77
2022/12/28 06:54:04;;;;;;;5.47;0.60;;;;;;;;;;5094017;28;20020;-77
2022/12/28 06:56:32;;;;;;;0.87;0.30;;;;;;;;;;5094278;28;20026;-76
2022/12/28 06:58:58;;;;;;;3.03;0.40;;;;;;;;;;5095483;28;20031;-78
2022/12/28 07:01:25;;;;;;;6.73;0.70;;;;;;;;;;5095372;28;20480;-76
2022/12/28 07:03:51;;;;;;;9.13;0.53;;;;;;;;;;5095424;28;20469;-75
2022/12/28 07:06:18;;;;;;;5.28;0.88;;;;;;;;;;5095428;28;20507;-76
2022/12/28 07:08:44;;;;;;;8.77;2.90;;;;;;;;;;5097458;28;20068;-76
2022/12/28 07:11:11;;;;;;;3.23;1.00;;;;;;;;;;5097625;28;20032;-76
2022/12/28 07:13:37;;;;;;;4.40;0.67;;;;;;;;;;5099897;28;20039;-78
2022/12/28 07:16:07;;;;;;;5.85;0.70;;;;;;;;;;5097448;28;20023;-78
2022/12/28 07:18:33;;;;;;;9.27;0.90;;;;;;;;;;5096466;28;20441;-75
2022/12/28 07:20:59;;;;;;;9.40;0.60;;;;;;;;;;5094654;28;20058;-77
2022/12/28 07:23:29;;;;;;;2.83;0.50;;;;;;;;;;5093263;28;20457;-78
2022/12/28 07:25:56;;;;;;;8.70;0.70;;;;;;;;;;5095474;28;20103;-74
2022/12/28 07:28:21;;;;;;;3.87;0.80;;;;;;;;;;5094732;28;20016;-76
2022/12/28 07:30:47;;;;;;;7.43;1.00;;;;;;;;;;5093194;28;20028;-77
2022/12/28 07:33:13;;;;;;;9.30;1.13;;;;;;;;;;5093393;28;20526;-77
2022/12/28 07:35:39;;;;;;;4.13;1.13;;;;;;;;;;5093214;28;20020;-77
2022/12/28 07:38:05;;;;;;;1.93;0.70;;;;;;;;;;5092793;28;20158;-75
2022/12/28 07:40:31;;;;;;;10.77;1.00;;;;;;;;;;5093041;28;20050;-76
2022/12/28 07:42:58;;;;;;;2.08;0.50;;;;;;;;;;5093082;28;20127;-78
2022/12/28 07:45:24;;;;;;;5.25;1.10;;;;;;;;;;5093537;28;20020;-76
2022/12/28 07:47:49;;;;;;;9.30;0.70;;;;;;;;;;5095084;28;20031;-75
2022/12/28 07:50:14;;;;;;;6.27;0.70;;;;;;;;;;5094039;28;20032;-77
2022/12/28 07:52:41;;;;;;;3.60;0.63;;;;;;;;;;5094879;28;20022;-77
2022/12/28 07:55:07;;;;;;;4.97;0.88;;;;;;;;;;5093920;28;20460;-76
2022/12/28 07:57:33;;;;;;;4.07;0.80;;;;;;;;;;5093481;28;20043;-78
2022/12/28 07:59:59;;;;;;;6.43;0.70;;;;;;;;;;5092317;28;20486;-76
2022/12/28 08:02:25;;;;;;;6.20;1.02;;;;;;;;;;5092000;28;20052;-75
2022/12/28 08:04:50;;;;;;;8.05;0.98;;;;;;;;;;5094015;28;20085;-76
2022/12/28 08:07:17;;;;;;;10.98;0.93;;;;;;;;;;5092805;28;20020;-77
2022/12/28 08:09:42;;;;;;;5.80;0.68;;;;;;;;;;5094671;28;20028;-76
2022/12/28 08:12:08;;;;;;;2.53;0.80;;;;;;;;;;5092478;28;20018;-77
2022/12/28 08:14:35;;;;;;;6.03;1.10;;;;;;;;;;5093541;28;20020;-76
2022/12/28 08:17:00;;;;;;;6.23;1.10;;;;;;;;;;5091850;28;20031;-77
2022/12/28 08:19:28;;;;;;;5.67;1.00;;;;;;;;;;5092530;28;20016;-77
2022/12/28 08:21:53;;;;;;;5.63;0.87;;;;;;;;;;5093963;28;20012;-76
2022/12/28 08:24:19;;;;;;;7.65;2.15;;;;;;;;;;5095723;28;20506;-76
2022/12/28 08:26:46;;;;;;;13.33;3.70;;;;;;;;;;5096233;28;20503;-76
2022/12/28 08:29:13;;;;;;;6.95;2.30;;;;;;;;;;5095435;28;20489;-75
2022/12/28 08:31:40;;;;;;;12.98;3.22;;;;;;;;;;5092609;28;20016;-76
2022/12/28 08:34:07;;;;;;;9.40;2.73;;;;;;;;;;5092254;28;20422;-77
2022/12/28 08:36:33;;;;;;;4.20;1.98;;;;;;;;;;5098806;28;20039;-76
2022/12/28 08:39:00;;;;;;;4.80;0.80;;;;;;;;;;5100673;28;20028;-77
2022/12/28 08:41:28;;;;;;;3.67;0.60;;;;;;;;;;5101252;28;20020;-76
2022/12/28 08:43:54;;;;;;;12.40;2.00;;;;;;;;;;5100885;28;20016;-78
2022/12/28 08:46:20;;;;;;;10.18;1.27;;;;;;;;;;5100291;28;20012;-77
2022/12/28 08:48:47;;;;;;;5.87;1.03;;;;;;;;;;5097635;28;20042;-76
2022/12/28 08:51:13;;;;;;;4.90;0.90;;;;;;;;;;5097953;28;20032;-76
2022/12/28 08:53:39;;;;;;;7.40;1.10;;;;;;;;;;5096598;28;20032;-76
2022/12/28 08:56:05;;;;;;;6.93;1.17;;;;;;;;;;5098516;28;20020;-78
2022/12/28 08:58:31;;;;;;;7.70;1.40;;;;;;;;;;5096695;28;20017;-74
2022/12/28 09:01:03;;;;;;;8.23;1.97;;;;;;;;;;5100822;28;20019;-77
2022/12/28 09:03:28;;;;;;;6.00;0.87;;;;;;;;;;5101742;28;20048;-76
2022/12/28 09:05:54;;;;;;;5.37;1.20;;;;;;;;;;5100609;28;20022;-77
2022/12/28 09:08:19;;;;;;;6.00;1.57;;;;;;;;;;5097063;28;20079;-75
2022/12/28 09:10:45;;;;;;;8.00;2.67;;;;;;;;;;5098480;28;20089;-76
2022/12/28 09:13:10;;;;;;;4.07;1.37;;;;;;;;;;5097717;28;20016;-76
2022/12/28 09:15:36;;;;;;;11.40;1.93;;;;;;;;;;5097662;28;20389;-78
2022/12/28 09:18:01;;;;;;;5.70;1.20;;;;;;;;;;5097688;28;20019;-76
2022/12/28 09:20:28;;;;;;;16.10;4.55;;;;;;;;;;5095910;28;20446;-76
2022/12/28 09:22:53;;;;;;;9.80;1.20;;;;;;;;;;5097935;28;20032;-75
2022/12/28 09:25:18;;;;;;;5.68;1.15;;;;;;;;;;5096551;28;20492;-76
2022/12/28 09:27:46;;;;;;;10.02;1.02;;;;;;;;;;5097506;28;20085;-78
2022/12/28 09:30:12;;;;;;;5.43;1.07;;;;;;;;;;5098558;28;20028;-77
2022/12/28 09:32:37;;;;;;;8.87;1.40;;;;;;;;;;5100307;28;20039;-79
2022/12/28 09:35:02;;;;;;;7.23;1.10;;;;;;;;;;5100416;28;20518;-75
2022/12/28 09:37:28;;;;;;;6.15;1.23;;;;;;;;;;5098963;28;20065;-78
2022/12/28 09:39:54;;;;;;;5.78;1.25;;;;;;;;;;5097365;28;20016;-77
2022/12/28 09:42:27;;;;;;;3.95;0.90;;;;;;;;;;5100041;28;20111;-76
2022/12/28 09:45:12;;;;;;;4.95;1.20;;;;;;;;;;5099890;28;20069;-77
2022/12/28 09:47:38;;;;;;;;;;;;;;;;;;5094814;28;20131;-77
2022/12/28 09:50:06;;;;;;;6.47;2.08;;;;;;;;;;5097239;28;20345;-77
2022/12/28 09:52:45;;;;;;;8.70;1.83;;;;;;;;;;5097318;28;20059;-76
2022/12/28 09:55:14;;;;;;;11.95;3.55;;;;;;;;;;5097964;28;20051;-75
2022/12/28 09:57:54;;;;;;;25.67;7.20;;;;;;;;;;5100404;28;20016;-78
2022/12/28 10:00:21;;;;;;;7.32;1.50;;;;;;;;;;5100601;28;20016;-77
2022/12/28 10:02:59;;;;;;;6.93;1.90;;;;;;;;;;5098866;28;20159;-77
2022/12/28 10:05:25;;;;;;;6.38;1.80;;;;;;;;;;5103004;28;20032;-80
2022/12/28 10:07:51;;;;;;;9.77;1.65;;;;;;;;;;5103067;28;20016;-75
2022/12/28 10:10:19;;;;;;;10.95;2.00;;;;;;;;;;5097367;28;20050;-78
2022/12/28 10:12:44;;;;;;;8.45;1.58;;;;;;;;;;5094818;28;20016;-78
2022/12/28 10:15:13;;;;;;;4.28;1.10;;;;;;;;;;5096061;28;20388;-76
2022/12/28 10:17:39;;;;;;;8.73;1.55;;;;;;;;;;5095084;28;20047;-76
2022/12/28 10:20:06;;;;;;;7.13;1.77;;;;;;;;;;5095704;28;20016;-78
2022/12/28 10:22:38;;;;;;;11.30;2.08;;;;;;;;;;5093783;28;20137;-79
2022/12/28 10:25:11;;;;;;;8.52;2.30;;;;;;;;;;5095396;28;20020;-78
2022/12/28 10:27:37;;;;;;;12.68;2.78;;;;;;;;;;5093895;28;20049;-76
2022/12/28 10:30:06;;;;;;;10.90;2.13;;;;;;;;;;5095005;28;20111;-79
2022/12/28 10:32:47;;;;;;;11.60;2.25;;;;;;;;;;5095584;28;20107;-79
2022/12/28 10:35:21;;;;;;;12.30;3.22;;;;;;;;;;5095186;28;20017;-76
2022/12/28 10:37:49;;;;;;;16.73;5.15;;;;;;;;;;5094830;28;20027;-76
2022/12/28 10:40:22;;;;;;;14.15;2.85;;;;;;;;;;5095447;28;20024;-77
2022/12/28 10:42:50;;;;;;;6.05;2.00;;;;;;;;;;5095836;28;20085;-80
2022/12/28 10:45:17;;;;;;;11.32;2.03;;;;;;;;;;5094508;28;20024;-79
2022/12/28 10:47:47;;;;;;;9.45;1.98;;;;;;;;;;5093705;28;20031;-78
2022/12/28 10:50:32;;;;;;;12.60;3.40;;;;;;;;;;5093331;28;20438;-78
2022/12/28 10:52:58;;;;;;;34.67;9.90;;;;;;;;;;5093575;28;20024;-78
2022/12/28 10:55:27;;;;;;;13.05;2.78;;;;;;;;;;5095042;28;20097;-78
2022/12/28 10:57:53;;;;;;;7.25;2.22;;;;;;;;;;5095376;28;20020;-78
2022/12/28 11:00:24;;;;;;;9.50;2.17;;;;;;;;;;5093437;28;20020;-77
2022/12/28 11:02:50;;;;;;;7.32;1.88;;;;;;;;;;5093414;28;20560;-77
2022/12/28 11:05:20;;;;;;;8.90;1.90;;;;;;;;;;5094727;28;20055;-78
2022/12/28 11:07:48;;;;;;;18.23;2.33;;;;;;;;;;5093539;28;20027;-80
2022/12/28 11:10:21;;;;;;;9.82;1.83;;;;;;;;;;5094723;28;20032;-79
2022/12/28 11:12:47;;;;;;;7.15;1.67;;;;;;;;;;5094893;28;20065;-80
2022/12/28 11:15:13;;;;;;;10.02;2.20;;;;;;;;;;5093164;28;20057;-79
2022/12/28 11:17:39;;;;;;;56.78;30.17;;;;;;;;;;5095687;28;20407;-77
2022/12/28 11:20:07;;;;;;;5.70;2.17;;;;;;;;;;5101631;28;20167;-79
2022/12/28 11:22:32;;;;;;;13.35;4.50;;;;;;;;;;5101386;28;20024;-79
2022/12/28 11:24:59;;;;;;;9.85;2.20;;;;;;;;;;5099012;28;20016;-81
2022/12/28 11:27:25;;;;;;;6.32;1.42;;;;;;;;;;5093831;28;20024;-79
2022/12/28 11:29:51;;;;;;;6.30;2.00;;;;;;;;;;5095193;28;20031;-80
2022/12/28 11:32:20;;;;;;;6.30;2.08;;;;;;;;;;5098329;28;20220;-80
2022/12/28 11:34:46;;;;;;;8.40;1.90;;;;;;;;;;5097822;28;20404;-79
2022/12/28 11:37:14;;;;;;;11.30;2.47;;;;;;;;;;5096667;28;20036;-77
2022/12/28 11:39:44;;;;;;;8.80;1.55;;;;;;;;;;5094035;28;20012;-78
2022/12/28 11:42:10;;;;;;;9.65;2.42;;;;;;;;;;5096408;28;20020;-79
2022/12/28 11:44:38;;;;;;;8.07;1.90;;;;;;;;;;5096224;28;20118;-79
2022/12/28 11:47:16;;;;;;;9.40;1.88;;;;;;;;;;5094807;28;20020;-79
2022/12/28 11:49:42;;;;;;;9.48;2.15;;;;;;;;;;5093978;28;20024;-79
2022/12/28 11:52:14;;;;;;;13.43;2.35;;;;;;;;;;5094824;28;20024;-80
2022/12/28 11:54:52;;;;;;;11.23;1.88;;;;;;;;;;5094479;28;20422;-78
2022/12/28 11:57:35;;;;;;;5.28;1.83;;;;;;;;;;5094921;28;20105;-79
2022/12/28 12:00:17;;;;;;;7.00;1.90;;;;;;;;;;5094761;28;20026;-80
2022/12/28 12:02:50;;;;;;;10.98;2.40;;;;;;;;;;5094012;28;20135;-78
2022/12/28 12:05:35;;;;;;;7.88;1.92;;;;;;;;;;5093528;28;20031;-78
2022/12/28 12:08:01;;;;;;;11.23;2.37;;;;;;;;;;5093418;28;20016;-78
2022/12/28 12:10:28;;;;;;;6.93;2.35;;;;;;;;;;5092657;28;20032;-80
2022/12/28 12:12:53;;;;;;;8.25;2.20;;;;;;;;;;5093014;28;20050;-77
2022/12/28 12:15:21;;;;;;;8.52;1.85;;;;;;;;;;5094086;28;20016;-79
2022/12/28 12:17:46;;;;;;;11.32;1.92;;;;;;;;;;5093321;28;20016;-79
2022/12/28 12:20:20;;;;;;;10.10;2.33;;;;;;;;;;5094452;28;20372;-80
2022/12/28 12:22:48;;;;;;;7.63;2.20;;;;;;;;;;5095057;28;20027;-77
2022/12/28 12:25:18;;;;;;;6.38;1.85;;;;;;;;;;5096065;28;20028;-80
2022/12/28 12:27:47;;;;;;;7.90;1.95;;;;;;;;;;5092895;28;20467;-77
2022/12/28 12:30:18;;;;;;;10.15;1.88;;;;;;;;;;5094343;28;20480;-78
2022/12/28 12:32:44;;;;;;;9.55;2.30;;;;;;;;;;5094060;28;20027;-80
2022/12/28 12:35:13;;;;;;;11.50;2.13;;;;;;;;;;5100062;28;20014;-78
2022/12/28 12:37:42;;;;;;;14.95;2.20;;;;;;;;;;5095384;28;20024;-78
2022/12/28 12:40:26;;;;;;;9.60;1.83;;;;;;;;;;5094775;28;20016;-80
2022/12/28 12:42:59;;;;;;;9.43;2.00;;;;;;;;;;5095962;28;20049;-80
2022/12/28 12:45:32;;;;;;;14.52;2.30;;;;;;;;;;5095946;28;20055;-78
2022/12/28 12:48:09;;;;;;;6.50;2.08;;;;;;;;;;5095823;28;20012;-78
2022/12/28 12:50:53;;;;;;;8.35;2.05;;;;;;;;;;5095453;28;20050;-78
2022/12/28 12:53:28;;;;;;;6.93;1.60;;;;;;;;;;5093087;28;20031;-78
2022/12/28 12:56:03;;;;;;;9.23;2.17;;;;;;;;;;5094725;28;20034;-79
2022/12/28 12:58:32;;;;;;;9.25;2.28;;;;;;;;;;5094274;28;20028;-80
2022/12/28 13:01:15;;;;;;;10.68;2.72;;;;;;;;;;5095671;28;20073;-78
2022/12/28 13:03:43;;;;;;;11.52;4.57;;;;;;;;;;5094848;28;20074;-79
2022/12/28 13:06:11;;;;;;;26.17;13.32;;;;;;;;;;5093082;28;20396;-79
2022/12/28 13:08:41;;;;;;;15.55;4.28;;;;;;;;;;5094485;28;20016;-78
2022/12/28 13:11:07;;;;;;;9.00;2.30;;;;;;;;;;5093885;28;20438;-80
2022/12/28 13:13:34;;;;;;;10.90;3.05;;;;;;;;;;5095442;28;20012;-81
2022/12/28 13:16:02;;;;;;;6.65;2.28;;;;;;;;;;5095494;28;20031;-79
2022/12/28 13:18:28;;;;;;;7.95;2.70;;;;;;;;;;5095505;28;20016;-79
2022/12/28 13:20:53;;;;;;;9.55;2.05;;;;;;;;;;5095468;28;20119;-79
2022/12/28 13:23:20;;;;;;;9.35;2.78;;;;;;;;;;5096658;28;20012;-81
2022/12/28 13:25:47;;;;;;;6.30;2.72;;;;;;;;;;5097528;28;20051;-80
2022/12/28 13:28:26;;;;;;;8.57;2.70;;;;;;;;;;5097400;28;20016;-80
2022/12/28 13:30:57;;;;;;;12.93;3.05;;;;;;;;;;5097158;28;20032;-81
2022/12/28 13:33:22;;;;;;;7.13;2.83;;;;;;;;;;5099480;28;20103;-81
2022/12/28 13:35:48;;;;;;;10.75;2.75;;;;;;;;;;5097256;28;20376;-79
2022/12/28 13:38:15;;;;;;;3.63;1.63;;;;;;;;;;5095903;28;20016;-79
2022/12/28 13:40:48;;;;;;;9.55;2.78;;;;;;;;;;5096424;28;20020;-80
2022/12/28 13:43:31;;;;;;;11.85;2.85;;;;;;;;;;5098100;28;20026;-78
2022/12/28 13:46:00;;;;;;;5.15;1.70;;;;;;;;;;5103999;28;20020;-80
2022/12/28 13:48:26;;;;;;;11.05;2.75;;;;;;;;;;5101656;28;20509;-80
2022/12/28 13:50:52;;;;;;;4.60;2.05;;;;;;;;;;5097644;28;20035;-80
2022/12/28 13:53:24;;;;;;;9.32;2.95;;;;;;;;;;5097935;28;20457;-79
2022/12/28 13:56:03;;;;;;;8.20;2.45;;;;;;;;;;5097397;28;20559;-80
2022/12/28 13:58:38;;;;;;;6.47;1.85;;;;;;;;;;5095707;28;20024;-81
2022/12/28 14:01:08;;;;;;;7.57;2.15;;;;;;;;;;5096394;28;20056;-80
2022/12/28 14:03:38;;;;;;;8.57;2.33;;;;;;;;;;5096134;28;20492;-81
2022/12/28 14:06:03;;;;;;;10.18;2.92;;;;;;;;;;5097392;28;20024;-79
2022/12/28 14:08:32;;;;;;;9.25;2.60;;;;;;;;;;5096944;28;20538;-80
2022/12/28 14:10:58;;;;;;;8.68;3.58;;;;;;;;;;5095629;28;20494;-80
2022/12/28 14:13:24;;;;;;;9.98;2.90;;;;;;;;;;5096508;28;20024;-77
2022/12/28 14:15:50;;;;;;;8.98;3.33;;;;;;;;;;5106455;28;20029;-77
2022/12/28 14:18:17;;;;;;;10.05;3.50;;;;;;;;;;5111322;28;20122;-80
2022/12/28 14:20:52;;;;;;;7.93;3.22;;;;;;;;;;5107566;28;20016;-79
2022/12/28 14:23:19;;;;;;;7.45;2.63;;;;;;;;;;5097531;28;20027;-80
2022/12/28 14:25:44;;;;;;;7.65;2.95;;;;;;;;;;5098163;28;20464;-79
2022/12/28 14:28:22;;;;;;;10.02;3.33;;;;;;;;;;5096766;28;20115;-79
2022/12/28 14:30:54;;;;;;;7.72;2.50;;;;;;;;;;5099455;28;20035;-80
2022/12/28 14:33:24;;;;;;;11.95;2.97;;;;;;;;;;5098064;28;20530;-79
2022/12/28 14:36:00;;;;;;;5.78;2.35;;;;;;;;;;5100968;28;20031;-78
2022/12/28 14:38:33;;;;;;;9.98;2.78;;;;;;;;;;5098944;28;20064;-78
2022/12/28 14:41:00;;;;;;;7.80;3.00;;;;;;;;;;5098687;28;20109;-78
2022/12/28 14:43:27;;;;;;;20.52;3.75;;;;;;;;;;5098109;28;20012;-84
2022/12/28 14:45:53;;;;;;;29.40;4.00;;;;;;;;;;5096336;28;20023;-79
2022/12/28 14:48:36;;;;;;;13.73;3.90;;;;;;;;;;5097201;28;20028;-79
2022/12/28 14:51:03;;;;;;;8.75;2.97;;;;;;;;;;5096325;28;20032;-79
2022/12/28 14:53:28;;;;;;;11.70;3.10;;;;;;;;;;5096036;28;20016;-78
2022/12/28 14:55:59;;;;;;;6.65;3.13;;;;;;;;;;5095057;28;20540;-80
2022/12/28 14:58:31;;;;;;;10.93;3.70;;;;;;;;;;5095331;28;20082;-79
2022/12/28 15:00:58;;;;;;;11.80;4.30;;;;;;;;;;5095427;28;20380;-80
2022/12/28 15:03:27;;;;;;;14.77;6.03;;;;;;;;;;5094401;28;20212;-80
2022/12/28 15:05:54;;;;;;;19.25;5.53;;;;;;;;;;5095329;28;20035;-81
2022/12/28 15:08:21;;;;;;;7.88;3.50;;;;;;;;;;5096001;28;20039;-79
2022/12/28 15:10:48;;;;;;;8.80;3.28;;;;;;;;;;5096770;28;20152;-80
2022/12/28 15:13:15;;;;;;;9.05;3.33;;;;;;;;;;5093985;28;20494;-77